메인 페이지
METAR-TAF:

METAR-TAF

공항 :

벤구리온 국제공항

텔아비브 / 벤구리온, 이스라엘

위도: 32-00N, 경도: 034-54E, 고도: 40m

현재 날씨관측

예보는 39분 전, 19:50시(UTC)에 발표되었습니다.
여러 방향의 바람 3kt
온도 17°C
습도 82%
기압 1016 hPa
시정 10km 이상
1500m 미만 상공 구름 및 적란운 없음

METAR: LLBG 051950Z VRB03KT CAVOK 17/14 Q1016 NOSIG

시각: 23:29 (20:29 UTC)

예보

예보는 3 시간 27분 전, 17:02시(UTC)에 발표되었습니다.
예보 대상 시간: 05일 18시부터 06일 18시까지 (UTC)
8kt
시정: 8000m
고도 1800ft 상공 구름 보통
전환 중
05일 20시부터 05일 22시까지 (UTC)
여러 방향의 바람 4kt
전환 중
06일 07시부터 06일 09시까지 (UTC)
10kt
시정 10km 이상
고도 3000ft 상공 구름 조금
전환 중
06일 11시부터 06일 13시까지 (UTC)
북서12kt

TAF: LLBG 051702Z 0518/0618 26008KT 8000 SCT018 BECMG 0520/0522 VRB04KT BECMG 0607/0609 26010KT 9999 FEW030 BECMG 0611/0613 32012KT TX24/0611Z TN14/0603Z

4,000개 이상의 공항 관측 자료 및 예보 (METAR 및 TAF 보고).

지도상에서 검색 가능한 기상관측소가 노란 점과 빨간 점으로 표시되어 있습니다.

기상관측소 명을 보려면 표시 위로 마우스를 이동하세요.

날씨 관측과 예보를 보려면 클릭하세요.

지도 변경 : 확대하려면 엑스 표시가 있는 녹색 버튼, 축소하려면 빼기 표시가 있는 녹색 버튼, 다음 페이지의 지도를 보려면 녹색 화살표를 클릭하세요.


METAR-TAF: